sensor_id;sensor_type;location;lat;lon;timestamp;P1;durP1;ratioP1;P2;durP2;ratioP2
3052;SDS011;1536;51.098;6.414;2023-02-27T00:01:36;6.78;;;4.93;;
3052;SDS011;1536;51.098;6.414;2023-02-27T00:04:03;6.32;;;5.10;;
3052;SDS011;1536;51.098;6.414;2023-02-27T00:06:30;8.05;;;6.00;;
3052;SDS011;1536;51.098;6.414;2023-02-27T00:08:56;6.25;;;5.70;;
3052;SDS011;1536;51.098;6.414;2023-02-27T00:11:23;8.55;;;4.82;;
3052;SDS011;1536;51.098;6.414;2023-02-27T00:13:51;10.40;;;6.40;;
3052;SDS011;1536;51.098;6.414;2023-02-27T00:16:18;7.05;;;6.13;;
3052;SDS011;1536;51.098;6.414;2023-02-27T00:18:45;8.40;;;5.60;;
3052;SDS011;1536;51.098;6.414;2023-02-27T00:21:11;8.52;;;5.10;;
3052;SDS011;1536;51.098;6.414;2023-02-27T00:23:38;5.50;;;5.10;;
3052;SDS011;1536;51.098;6.414;2023-02-27T00:26:05;5.05;;;4.57;;
3052;SDS011;1536;51.098;6.414;2023-02-27T00:28:31;5.32;;;4.75;;
3052;SDS011;1536;51.098;6.414;2023-02-27T00:30:59;6.07;;;5.35;;
3052;SDS011;1536;51.098;6.414;2023-02-27T00:33:28;6.57;;;4.90;;
3052;SDS011;1536;51.098;6.414;2023-02-27T00:35:55;5.10;;;4.65;;
3052;SDS011;1536;51.098;6.414;2023-02-27T00:38:22;5.38;;;4.97;;
3052;SDS011;1536;51.098;6.414;2023-02-27T00:40:49;5.60;;;5.10;;
3052;SDS011;1536;51.098;6.414;2023-02-27T00:43:16;5.13;;;4.72;;
3052;SDS011;1536;51.098;6.414;2023-02-27T00:45:43;6.20;;;5.40;;
3052;SDS011;1536;51.098;6.414;2023-02-27T00:48:11;5.55;;;5.13;;
3052;SDS011;1536;51.098;6.414;2023-02-27T00:50:37;6.82;;;5.30;;
3052;SDS011;1536;51.098;6.414;2023-02-27T00:53:04;6.28;;;5.68;;
3052;SDS011;1536;51.098;6.414;2023-02-27T00:55:31;7.32;;;5.30;;
3052;SDS011;1536;51.098;6.414;2023-02-27T00:57:57;5.78;;;5.28;;
3052;SDS011;1536;51.098;6.414;2023-02-27T01:00:24;6.13;;;5.47;;
3052;SDS011;1536;51.098;6.414;2023-02-27T01:02:51;5.53;;;5.20;;
3052;SDS011;1536;51.098;6.414;2023-02-27T01:05:19;7.50;;;5.00;;
3052;SDS011;1536;51.098;6.414;2023-02-27T01:07:46;5.30;;;4.80;;
3052;SDS011;1536;51.098;6.414;2023-02-27T01:10:13;7.45;;;5.00;;
3052;SDS011;1536;51.098;6.414;2023-02-27T01:12:39;6.40;;;4.45;;
3052;SDS011;1536;51.098;6.414;2023-02-27T01:15:07;7.20;;;5.70;;
3052;SDS011;1536;51.098;6.414;2023-02-27T01:17:35;6.35;;;4.97;;
3052;SDS011;1536;51.098;6.414;2023-02-27T01:20:02;5.32;;;4.82;;
3052;SDS011;1536;51.098;6.414;2023-02-27T01:22:31;5.95;;;5.45;;
3052;SDS011;1536;51.098;6.414;2023-02-27T01:24:58;9.50;;;5.00;;
3052;SDS011;1536;51.098;6.414;2023-02-27T01:27:25;6.10;;;5.60;;
3052;SDS011;1536;51.098;6.414;2023-02-27T01:29:51;7.88;;;5.13;;
3052;SDS011;1536;51.098;6.414;2023-02-27T01:32:18;5.93;;;5.10;;
3052;SDS011;1536;51.098;6.414;2023-02-27T01:34:45;7.43;;;5.65;;
3052;SDS011;1536;51.098;6.414;2023-02-27T01:37:11;5.35;;;4.85;;
3052;SDS011;1536;51.098;6.414;2023-02-27T01:39:40;6.85;;;5.55;;
3052;SDS011;1536;51.098;6.414;2023-02-27T01:42:09;5.35;;;4.88;;
3052;SDS011;1536;51.098;6.414;2023-02-27T01:47:49;7.90;;;5.57;;
3052;SDS011;1536;51.098;6.414;2023-02-27T01:50:19;6.20;;;5.40;;
3052;SDS011;1536;51.098;6.414;2023-02-27T01:52:47;6.10;;;5.47;;
3052;SDS011;1536;51.098;6.414;2023-02-27T01:55:18;6.30;;;5.70;;
3052;SDS011;1536;51.098;6.414;2023-02-27T01:57:46;6.47;;;5.47;;
3052;SDS011;1536;51.098;6.414;2023-02-27T02:00:14;5.97;;;5.30;;
3052;SDS011;1536;51.098;6.414;2023-02-27T02:02:48;5.85;;;5.25;;
3052;SDS011;1536;51.098;6.414;2023-02-27T02:05:20;8.90;;;5.80;;
3052;SDS011;1536;51.098;6.414;2023-02-27T02:07:47;5.75;;;5.25;;
3052;SDS011;1536;51.098;6.414;2023-02-27T02:10:14;5.68;;;5.10;;
3052;SDS011;1536;51.098;6.414;2023-02-27T02:12:44;6.63;;;5.90;;
3052;SDS011;1536;51.098;6.414;2023-02-27T02:15:12;6.40;;;5.80;;
3052;SDS011;1536;51.098;6.414;2023-02-27T02:17:41;8.00;;;5.90;;
3052;SDS011;1536;51.098;6.414;2023-02-27T02:20:26;7.80;;;5.25;;
3052;SDS011;1536;51.098;6.414;2023-02-27T02:23:36;6.63;;;5.93;;
3052;SDS011;1536;51.098;6.414;2023-02-27T02:26:24;5.95;;;5.45;;
3052;SDS011;1536;51.098;6.414;2023-02-27T02:35:37;5.88;;;5.25;;
3052;SDS011;1536;51.098;6.414;2023-02-27T02:41:17;5.80;;;5.30;;
3052;SDS011;1536;51.098;6.414;2023-02-27T02:43:54;5.70;;;5.20;;
3052;SDS011;1536;51.098;6.414;2023-02-27T02:46:29;5.78;;;5.35;;
3052;SDS011;1536;51.098;6.414;2023-02-27T02:49:00;6.40;;;5.78;;
3052;SDS011;1536;51.098;6.414;2023-02-27T02:51:35;7.07;;;6.47;;
3052;SDS011;1536;51.098;6.414;2023-02-27T02:54:11;6.60;;;5.95;;
3052;SDS011;1536;51.098;6.414;2023-02-27T02:56:43;6.80;;;6.00;;
3052;SDS011;1536;51.098;6.414;2023-02-27T02:59:17;5.93;;;5.47;;
3052;SDS011;1536;51.098;6.414;2023-02-27T03:01:50;5.70;;;5.13;;
3052;SDS011;1536;51.098;6.414;2023-02-27T03:04:24;7.45;;;5.43;;
3052;SDS011;1536;51.098;6.414;2023-02-27T03:06:57;6.30;;;5.70;;
3052;SDS011;1536;51.098;6.414;2023-02-27T03:09:31;8.95;;;5.35;;
3052;SDS011;1536;51.098;6.414;2023-02-27T03:12:01;7.30;;;5.50;;
3052;SDS011;1536;51.098;6.414;2023-02-27T03:14:30;5.97;;;5.35;;
3052;SDS011;1536;51.098;6.414;2023-02-27T03:17:03;5.90;;;5.22;;
3052;SDS011;1536;51.098;6.414;2023-02-27T03:19:37;6.20;;;4.97;;
3052;SDS011;1536;51.098;6.414;2023-02-27T03:22:10;8.00;;;5.78;;
3052;SDS011;1536;51.098;6.414;2023-02-27T03:24:44;5.90;;;5.40;;
3052;SDS011;1536;51.098;6.414;2023-02-27T03:27:13;5.57;;;5.05;;
3052;SDS011;1536;51.098;6.414;2023-02-27T03:29:43;5.82;;;5.07;;
3052;SDS011;1536;51.098;6.414;2023-02-27T03:32:17;7.03;;;5.78;;
3052;SDS011;1536;51.098;6.414;2023-02-27T03:34:47;8.20;;;5.10;;
3052;SDS011;1536;51.098;6.414;2023-02-27T03:37:18;6.93;;;5.20;;
3052;SDS011;1536;51.098;6.414;2023-02-27T03:39:51;7.85;;;5.78;;
3052;SDS011;1536;51.098;6.414;2023-02-27T03:42:28;8.38;;;5.28;;
3052;SDS011;1536;51.098;6.414;2023-02-27T03:44:59;5.60;;;4.88;;
3052;SDS011;1536;51.098;6.414;2023-02-27T03:47:30;5.40;;;4.95;;
3052;SDS011;1536;51.098;6.414;2023-02-27T03:49:59;5.28;;;4.78;;
3052;SDS011;1536;51.098;6.414;2023-02-27T03:52:25;8.80;;;5.70;;
3052;SDS011;1536;51.098;6.414;2023-02-27T03:54:56;5.93;;;5.43;;
3052;SDS011;1536;51.098;6.414;2023-02-27T03:57:26;7.55;;;6.15;;
3052;SDS011;1536;51.098;6.414;2023-02-27T03:59:54;8.50;;;5.50;;
3052;SDS011;1536;51.098;6.414;2023-02-27T04:02:20;8.20;;;5.00;;
3052;SDS011;1536;51.098;6.414;2023-02-27T04:04:48;5.57;;;5.07;;
3052;SDS011;1536;51.098;6.414;2023-02-27T04:07:17;6.80;;;5.55;;
3052;SDS011;1536;51.098;6.414;2023-02-27T04:10:03;5.45;;;4.95;;
3052;SDS011;1536;51.098;6.414;2023-02-27T04:12:46;9.93;;;6.20;;
3052;SDS011;1536;51.098;6.414;2023-02-27T04:15:35;7.82;;;6.03;;
3052;SDS011;1536;51.098;6.414;2023-02-27T04:18:14;7.88;;;6.05;;
3052;SDS011;1536;51.098;6.414;2023-02-27T04:20:50;7.40;;;5.63;;
3052;SDS011;1536;51.098;6.414;2023-02-27T04:23:22;6.07;;;5.53;;
3052;SDS011;1536;51.098;6.414;2023-02-27T04:26:05;8.10;;;6.60;;
3052;SDS011;1536;51.098;6.414;2023-02-27T04:28:42;6.70;;;5.50;;
3052;SDS011;1536;51.098;6.414;2023-02-27T04:31:14;6.25;;;5.60;;
3052;SDS011;1536;51.098;6.414;2023-02-27T04:33:44;5.30;;;4.80;;
3052;SDS011;1536;51.098;6.414;2023-02-27T04:36:17;6.15;;;5.57;;
3052;SDS011;1536;51.098;6.414;2023-02-27T04:38:52;7.35;;;5.93;;
3052;SDS011;1536;51.098;6.414;2023-02-27T04:41:29;7.72;;;5.22;;
3052;SDS011;1536;51.098;6.414;2023-02-27T04:44:00;7.35;;;5.68;;
3052;SDS011;1536;51.098;6.414;2023-02-27T04:46:29;8.82;;;5.97;;
3052;SDS011;1536;51.098;6.414;2023-02-27T04:48:59;7.82;;;5.97;;
3052;SDS011;1536;51.098;6.414;2023-02-27T04:51:31;5.72;;;5.32;;
3052;SDS011;1536;51.098;6.414;2023-02-27T04:54:02;7.10;;;5.80;;
3052;SDS011;1536;51.098;6.414;2023-02-27T04:56:36;8.75;;;6.80;;
3052;SDS011;1536;51.098;6.414;2023-02-27T04:59:09;8.57;;;5.97;;
3052;SDS011;1536;51.098;6.414;2023-02-27T05:01:40;6.00;;;5.50;;
3052;SDS011;1536;51.098;6.414;2023-02-27T05:04:12;5.93;;;5.43;;
3052;SDS011;1536;51.098;6.414;2023-02-27T05:06:44;13.65;;;6.60;;
3052;SDS011;1536;51.098;6.414;2023-02-27T05:09:17;7.95;;;6.28;;
3052;SDS011;1536;51.098;6.414;2023-02-27T05:11:49;8.77;;;7.00;;
3052;SDS011;1536;51.098;6.414;2023-02-27T05:14:23;8.13;;;5.60;;
3052;SDS011;1536;51.098;6.414;2023-02-27T05:16:57;7.38;;;6.57;;
3052;SDS011;1536;51.098;6.414;2023-02-27T05:19:29;7.07;;;6.47;;
3052;SDS011;1536;51.098;6.414;2023-02-27T05:21:59;6.68;;;6.05;;
3052;SDS011;1536;51.098;6.414;2023-02-27T05:24:35;7.75;;;6.30;;
3052;SDS011;1536;51.098;6.414;2023-02-27T05:27:15;7.55;;;6.40;;
3052;SDS011;1536;51.098;6.414;2023-02-27T05:29:48;6.78;;;6.18;;
3052;SDS011;1536;51.098;6.414;2023-02-27T05:32:21;7.25;;;6.40;;
3052;SDS011;1536;51.098;6.414;2023-02-27T05:34:59;9.43;;;6.85;;
3052;SDS011;1536;51.098;6.414;2023-02-27T05:37:32;7.00;;;6.30;;
3052;SDS011;1536;51.098;6.414;2023-02-27T05:40:02;7.25;;;6.20;;
3052;SDS011;1536;51.098;6.414;2023-02-27T05:42:35;6.05;;;5.55;;
3052;SDS011;1536;51.098;6.414;2023-02-27T05:45:06;8.52;;;7.60;;
3052;SDS011;1536;51.098;6.414;2023-02-27T05:47:36;8.70;;;6.50;;
3052;SDS011;1536;51.098;6.414;2023-02-27T05:50:07;7.70;;;6.47;;
3052;SDS011;1536;51.098;6.414;2023-02-27T05:52:37;7.10;;;6.47;;
3052;SDS011;1536;51.098;6.414;2023-02-27T05:55:07;9.75;;;6.72;;
3052;SDS011;1536;51.098;6.414;2023-02-27T05:57:40;8.50;;;7.40;;
3052;SDS011;1536;51.098;6.414;2023-02-27T06:00:11;13.35;;;7.35;;
3052;SDS011;1536;51.098;6.414;2023-02-27T06:02:41;9.20;;;6.95;;
3052;SDS011;1536;51.098;6.414;2023-02-27T06:05:10;8.30;;;7.50;;
3052;SDS011;1536;51.098;6.414;2023-02-27T06:07:38;6.90;;;6.20;;
3052;SDS011;1536;51.098;6.414;2023-02-27T06:10:05;7.53;;;6.30;;
3052;SDS011;1536;51.098;6.414;2023-02-27T06:12:32;11.45;;;7.13;;
3052;SDS011;1536;51.098;6.414;2023-02-27T06:15:00;8.20;;;6.95;;
3052;SDS011;1536;51.098;6.414;2023-02-27T06:17:27;6.50;;;5.95;;
3052;SDS011;1536;51.098;6.414;2023-02-27T06:19:54;8.23;;;7.05;;
3052;SDS011;1536;51.098;6.414;2023-02-27T06:22:20;7.32;;;6.60;;
3052;SDS011;1536;51.098;6.414;2023-02-27T06:24:47;10.23;;;6.82;;
3052;SDS011;1536;51.098;6.414;2023-02-27T06:27:14;7.60;;;6.90;;
3052;SDS011;1536;51.098;6.414;2023-02-27T06:29:41;7.30;;;6.70;;
3052;SDS011;1536;51.098;6.414;2023-02-27T06:32:09;9.82;;;7.95;;
3052;SDS011;1536;51.098;6.414;2023-02-27T06:34:35;13.95;;;6.55;;
3052;SDS011;1536;51.098;6.414;2023-02-27T06:37:02;8.27;;;7.05;;
3052;SDS011;1536;51.098;6.414;2023-02-27T06:39:29;12.40;;;7.35;;
3052;SDS011;1536;51.098;6.414;2023-02-27T06:41:56;7.60;;;6.63;;
3052;SDS011;1536;51.098;6.414;2023-02-27T06:44:23;7.95;;;7.13;;
3052;SDS011;1536;51.098;6.414;2023-02-27T06:46:50;10.77;;;7.03;;
3052;SDS011;1536;51.098;6.414;2023-02-27T06:49:18;7.80;;;6.97;;
3052;SDS011;1536;51.098;6.414;2023-02-27T06:51:44;8.30;;;7.50;;
3052;SDS011;1536;51.098;6.414;2023-02-27T06:54:11;7.20;;;6.60;;
3052;SDS011;1536;51.098;6.414;2023-02-27T06:56:38;11.00;;;7.38;;
3052;SDS011;1536;51.098;6.414;2023-02-27T06:59:05;8.35;;;6.72;;
3052;SDS011;1536;51.098;6.414;2023-02-27T07:01:32;11.43;;;7.30;;
3052;SDS011;1536;51.098;6.414;2023-02-27T07:03:59;11.38;;;7.60;;
3052;SDS011;1536;51.098;6.414;2023-02-27T07:06:27;10.18;;;7.75;;
3052;SDS011;1536;51.098;6.414;2023-02-27T07:08:54;9.27;;;6.70;;
3052;SDS011;1536;51.098;6.414;2023-02-27T07:11:20;10.23;;;8.35;;
3052;SDS011;1536;51.098;6.414;2023-02-27T07:13:47;11.23;;;8.20;;
3052;SDS011;1536;51.098;6.414;2023-02-27T07:16:14;10.23;;;6.53;;
3052;SDS011;1536;51.098;6.414;2023-02-27T07:18:40;8.57;;;6.40;;
3052;SDS011;1536;51.098;6.414;2023-02-27T07:21:07;7.10;;;6.40;;
3052;SDS011;1536;51.098;6.414;2023-02-27T07:23:35;9.13;;;7.88;;
3052;SDS011;1536;51.098;6.414;2023-02-27T07:26:02;8.02;;;6.63;;
3052;SDS011;1536;51.098;6.414;2023-02-27T07:28:29;7.38;;;6.43;;
3052;SDS011;1536;51.098;6.414;2023-02-27T07:30:56;11.23;;;9.27;;
3052;SDS011;1536;51.098;6.414;2023-02-27T07:33:22;12.65;;;6.30;;
3052;SDS011;1536;51.098;6.414;2023-02-27T07:35:49;8.35;;;6.80;;
3052;SDS011;1536;51.098;6.414;2023-02-27T07:38:17;11.88;;;6.88;;
3052;SDS011;1536;51.098;6.414;2023-02-27T07:40:47;7.28;;;6.57;;
3052;SDS011;1536;51.098;6.414;2023-02-27T07:43:14;7.20;;;6.22;;
3052;SDS011;1536;51.098;6.414;2023-02-27T07:45:41;7.72;;;6.82;;
3052;SDS011;1536;51.098;6.414;2023-02-27T07:48:07;9.20;;;6.55;;
3052;SDS011;1536;51.098;6.414;2023-02-27T07:50:34;7.43;;;6.70;;
3052;SDS011;1536;51.098;6.414;2023-02-27T07:53:01;7.68;;;6.88;;
3052;SDS011;1536;51.098;6.414;2023-02-27T07:55:29;7.93;;;7.22;;
3052;SDS011;1536;51.098;6.414;2023-02-27T07:57:57;8.40;;;7.60;;
3052;SDS011;1536;51.098;6.414;2023-02-27T08:00:24;11.10;;;6.90;;
3052;SDS011;1536;51.098;6.414;2023-02-27T08:02:51;7.35;;;6.65;;
3052;SDS011;1536;51.098;6.414;2023-02-27T08:05:17;19.80;;;7.32;;
3052;SDS011;1536;51.098;6.414;2023-02-27T08:07:44;8.65;;;6.97;;
3052;SDS011;1536;51.098;6.414;2023-02-27T08:10:11;9.10;;;7.20;;
3052;SDS011;1536;51.098;6.414;2023-02-27T08:12:40;10.88;;;7.20;;
3052;SDS011;1536;51.098;6.414;2023-02-27T08:15:08;10.40;;;6.50;;
3052;SDS011;1536;51.098;6.414;2023-02-27T08:17:35;9.20;;;6.72;;
3052;SDS011;1536;51.098;6.414;2023-02-27T08:20:02;7.47;;;6.65;;
3052;SDS011;1536;51.098;6.414;2023-02-27T08:22:32;7.88;;;7.10;;
3052;SDS011;1536;51.098;6.414;2023-02-27T08:24:59;8.55;;;7.60;;
3052;SDS011;1536;51.098;6.414;2023-02-27T08:27:26;8.27;;;6.22;;
3052;SDS011;1536;51.098;6.414;2023-02-27T08:29:52;8.00;;;7.20;;
3052;SDS011;1536;51.098;6.414;2023-02-27T08:32:20;7.75;;;7.05;;
3052;SDS011;1536;51.098;6.414;2023-02-27T08:34:47;7.13;;;6.53;;
3052;SDS011;1536;51.098;6.414;2023-02-27T08:37:14;10.63;;;7.95;;
3052;SDS011;1536;51.098;6.414;2023-02-27T08:39:41;11.80;;;6.97;;
3052;SDS011;1536;51.098;6.414;2023-02-27T08:42:07;7.72;;;6.93;;
3052;SDS011;1536;51.098;6.414;2023-02-27T08:44:34;7.97;;;7.15;;
3052;SDS011;1536;51.098;6.414;2023-02-27T08:47:01;10.75;;;6.78;;
3052;SDS011;1536;51.098;6.414;2023-02-27T08:49:29;6.78;;;6.28;;
3052;SDS011;1536;51.098;6.414;2023-02-27T08:51:56;8.43;;;7.65;;
3052;SDS011;1536;51.098;6.414;2023-02-27T08:54:23;6.82;;;6.22;;
3052;SDS011;1536;51.098;6.414;2023-02-27T08:56:49;9.32;;;6.22;;
3052;SDS011;1536;51.098;6.414;2023-02-27T08:59:16;8.35;;;5.95;;
3052;SDS011;1536;51.098;6.414;2023-02-27T09:01:43;10.55;;;6.88;;
3052;SDS011;1536;51.098;6.414;2023-02-27T09:04:10;6.97;;;6.28;;
3052;SDS011;1536;51.098;6.414;2023-02-27T09:06:38;9.55;;;6.15;;
3052;SDS011;1536;51.098;6.414;2023-02-27T09:09:05;7.70;;;6.20;;
3052;SDS011;1536;51.098;6.414;2023-02-27T09:11:31;6.72;;;6.03;;
3052;SDS011;1536;51.098;6.414;2023-02-27T09:13:58;8.70;;;6.70;;
3052;SDS011;1536;51.098;6.414;2023-02-27T09:16:25;8.50;;;5.60;;
3052;SDS011;1536;51.098;6.414;2023-02-27T09:18:52;8.40;;;6.60;;
3052;SDS011;1536;51.098;6.414;2023-02-27T09:21:19;8.27;;;5.75;;
3052;SDS011;1536;51.098;6.414;2023-02-27T09:23:47;6.82;;;6.10;;
3052;SDS011;1536;51.098;6.414;2023-02-27T09:26:14;5.43;;;4.90;;
3052;SDS011;1536;51.098;6.414;2023-02-27T09:28:41;9.10;;;5.20;;
3052;SDS011;1536;51.098;6.414;2023-02-27T09:31:08;6.15;;;5.25;;
3052;SDS011;1536;51.098;6.414;2023-02-27T09:33:36;5.82;;;5.20;;
3052;SDS011;1536;51.098;6.414;2023-02-27T09:36:03;5.40;;;4.90;;
3052;SDS011;1536;51.098;6.414;2023-02-27T09:38:31;6.10;;;5.15;;
3052;SDS011;1536;51.098;6.414;2023-02-27T09:40:59;5.80;;;5.30;;
3052;SDS011;1536;51.098;6.414;2023-02-27T09:43:28;5.13;;;4.70;;
3052;SDS011;1536;51.098;6.414;2023-02-27T09:46:01;4.72;;;4.32;;
3052;SDS011;1536;51.098;6.414;2023-02-27T09:48:30;5.18;;;4.68;;
3052;SDS011;1536;51.098;6.414;2023-02-27T09:51:01;5.47;;;4.97;;
3052;SDS011;1536;51.098;6.414;2023-02-27T09:53:30;5.35;;;4.85;;
3052;SDS011;1536;51.098;6.414;2023-02-27T09:56:05;6.38;;;5.10;;
3052;SDS011;1536;51.098;6.414;2023-02-27T09:58:39;7.63;;;4.78;;
3052;SDS011;1536;51.098;6.414;2023-02-27T10:01:12;5.15;;;4.75;;
3052;SDS011;1536;51.098;6.414;2023-02-27T10:03:54;5.45;;;4.85;;
3052;SDS011;1536;51.098;6.414;2023-02-27T10:06:45;4.93;;;4.45;;
3052;SDS011;1536;51.098;6.414;2023-02-27T10:09:19;5.65;;;4.90;;
3052;SDS011;1536;51.098;6.414;2023-02-27T10:12:10;5.78;;;5.07;;
3052;SDS011;1536;51.098;6.414;2023-02-27T10:14:44;12.95;;;5.53;;
3052;SDS011;1536;51.098;6.414;2023-02-27T10:17:16;6.70;;;4.90;;
3052;SDS011;1536;51.098;6.414;2023-02-27T10:19:47;5.72;;;5.20;;
3052;SDS011;1536;51.098;6.414;2023-02-27T10:22:18;6.78;;;5.53;;
3052;SDS011;1536;51.098;6.414;2023-02-27T10:24:49;6.95;;;5.35;;
3052;SDS011;1536;51.098;6.414;2023-02-27T10:27:21;5.97;;;5.43;;
3052;SDS011;1536;51.098;6.414;2023-02-27T10:29:48;5.75;;;4.60;;
3052;SDS011;1536;51.098;6.414;2023-02-27T10:32:18;8.13;;;4.40;;
3052;SDS011;1536;51.098;6.414;2023-02-27T10:34:48;5.57;;;4.95;;
3052;SDS011;1536;51.098;6.414;2023-02-27T10:37:19;5.75;;;4.60;;
3052;SDS011;1536;51.098;6.414;2023-02-27T10:39:50;6.38;;;4.90;;
3052;SDS011;1536;51.098;6.414;2023-02-27T10:42:21;5.40;;;4.95;;
3052;SDS011;1536;51.098;6.414;2023-02-27T10:44:50;5.00;;;4.50;;
3052;SDS011;1536;51.098;6.414;2023-02-27T10:47:20;8.80;;;3.95;;
3052;SDS011;1536;51.098;6.414;2023-02-27T10:49:48;5.75;;;4.30;;
3052;SDS011;1536;51.098;6.414;2023-02-27T10:52:15;7.07;;;4.15;;
3052;SDS011;1536;51.098;6.414;2023-02-27T10:54:42;6.38;;;4.60;;
3052;SDS011;1536;51.098;6.414;2023-02-27T10:57:24;7.25;;;4.10;;
3052;SDS011;1536;51.098;6.414;2023-02-27T10:59:55;5.93;;;3.78;;
3052;SDS011;1536;51.098;6.414;2023-02-27T11:02:25;7.45;;;4.03;;
3052;SDS011;1536;51.098;6.414;2023-02-27T11:05:01;4.07;;;3.67;;
3052;SDS011;1536;51.098;6.414;2023-02-27T11:07:31;3.40;;;3.20;;
3052;SDS011;1536;51.098;6.414;2023-02-27T11:10:01;3.70;;;3.40;;
3052;SDS011;1536;51.098;6.414;2023-02-27T11:12:33;3.85;;;3.55;;
3052;SDS011;1536;51.098;6.414;2023-02-27T11:15:01;5.10;;;3.85;;
3052;SDS011;1536;51.098;6.414;2023-02-27T11:17:46;3.92;;;3.65;;
3052;SDS011;1536;51.098;6.414;2023-02-27T11:20:30;5.10;;;4.10;;
3052;SDS011;1536;51.098;6.414;2023-02-27T11:23:01;6.93;;;5.20;;
3052;SDS011;1536;51.098;6.414;2023-02-27T11:25:29;4.45;;;4.05;;
3052;SDS011;1536;51.098;6.414;2023-02-27T11:28:12;6.50;;;3.92;;
3052;SDS011;1536;51.098;6.414;2023-02-27T11:30:41;4.75;;;3.67;;
3052;SDS011;1536;51.098;6.414;2023-02-27T11:33:09;8.73;;;3.80;;
3052;SDS011;1536;51.098;6.414;2023-02-27T11:35:47;6.03;;;3.30;;
3052;SDS011;1536;51.098;6.414;2023-02-27T11:38:18;6.95;;;4.15;;
3052;SDS011;1536;51.098;6.414;2023-02-27T11:40:50;6.65;;;3.75;;
3052;SDS011;1536;51.098;6.414;2023-02-27T11:43:20;3.88;;;3.55;;
3052;SDS011;1536;51.098;6.414;2023-02-27T11:45:50;4.28;;;3.88;;
3052;SDS011;1536;51.098;6.414;2023-02-27T11:48:20;5.10;;;4.25;;
3052;SDS011;1536;51.098;6.414;2023-02-27T11:51:04;6.28;;;4.10;;
3052;SDS011;1536;51.098;6.414;2023-02-27T11:53:48;5.13;;;4.25;;
3052;SDS011;1536;51.098;6.414;2023-02-27T11:56:33;3.70;;;3.40;;
3052;SDS011;1536;51.098;6.414;2023-02-27T11:59:05;8.38;;;3.65;;
3052;SDS011;1536;51.098;6.414;2023-02-27T12:01:43;6.03;;;3.65;;
3052;SDS011;1536;51.098;6.414;2023-02-27T12:04:16;5.65;;;3.70;;
3052;SDS011;1536;51.098;6.414;2023-02-27T12:06:49;4.38;;;3.65;;
3052;SDS011;1536;51.098;6.414;2023-02-27T12:09:32;3.83;;;3.53;;
3052;SDS011;1536;51.098;6.414;2023-02-27T12:12:04;6.10;;;4.28;;
3052;SDS011;1536;51.098;6.414;2023-02-27T12:14:41;3.72;;;3.25;;
3052;SDS011;1536;51.098;6.414;2023-02-27T12:17:15;4.20;;;3.90;;
3052;SDS011;1536;51.098;6.414;2023-02-27T12:19:52;5.82;;;3.70;;
3052;SDS011;1536;51.098;6.414;2023-02-27T12:22:25;3.53;;;3.22;;
3052;SDS011;1536;51.098;6.414;2023-02-27T12:24:56;5.38;;;3.65;;
3052;SDS011;1536;51.098;6.414;2023-02-27T12:27:31;5.03;;;4.50;;
3052;SDS011;1536;51.098;6.414;2023-02-27T12:30:11;4.10;;;3.70;;
3052;SDS011;1536;51.098;6.414;2023-02-27T12:32:43;3.22;;;3.03;;
3052;SDS011;1536;51.098;6.414;2023-02-27T12:35:13;3.97;;;3.60;;
3052;SDS011;1536;51.098;6.414;2023-02-27T12:37:44;3.15;;;2.95;;
3052;SDS011;1536;51.098;6.414;2023-02-27T12:40:13;4.07;;;3.45;;
3052;SDS011;1536;51.098;6.414;2023-02-27T12:42:53;6.85;;;3.40;;
3052;SDS011;1536;51.098;6.414;2023-02-27T12:45:40;4.38;;;3.97;;
3052;SDS011;1536;51.098;6.414;2023-02-27T12:48:21;6.18;;;3.95;;
3052;SDS011;1536;51.098;6.414;2023-02-27T12:50:56;4.03;;;3.55;;
3052;SDS011;1536;51.098;6.414;2023-02-27T12:53:32;4.70;;;3.50;;
3052;SDS011;1536;51.098;6.414;2023-02-27T12:56:12;8.80;;;3.95;;
3052;SDS011;1536;51.098;6.414;2023-02-27T12:58:43;4.05;;;3.65;;
3052;SDS011;1536;51.098;6.414;2023-02-27T13:01:25;4.65;;;3.80;;
3052;SDS011;1536;51.098;6.414;2023-02-27T13:04:01;3.92;;;3.50;;
3052;SDS011;1536;51.098;6.414;2023-02-27T13:06:33;3.58;;;3.28;;
3052;SDS011;1536;51.098;6.414;2023-02-27T13:09:14;4.82;;;3.65;;
3052;SDS011;1536;51.098;6.414;2023-02-27T13:11:54;6.80;;;3.50;;
3052;SDS011;1536;51.098;6.414;2023-02-27T13:14:29;4.43;;;4.03;;
3052;SDS011;1536;51.098;6.414;2023-02-27T13:17:04;5.00;;;3.83;;
3052;SDS011;1536;51.098;6.414;2023-02-27T13:19:43;5.10;;;4.28;;
3052;SDS011;1536;51.098;6.414;2023-02-27T13:22:16;4.82;;;4.38;;
3052;SDS011;1536;51.098;6.414;2023-02-27T13:24:54;4.63;;;4.07;;
3052;SDS011;1536;51.098;6.414;2023-02-27T13:27:24;3.97;;;3.67;;
3052;SDS011;1536;51.098;6.414;2023-02-27T13:29:58;5.20;;;3.85;;
3052;SDS011;1536;51.098;6.414;2023-02-27T13:32:34;3.60;;;3.30;;
3052;SDS011;1536;51.098;6.414;2023-02-27T13:35:12;4.00;;;3.50;;
3052;SDS011;1536;51.098;6.414;2023-02-27T13:37:49;5.22;;;3.55;;
3052;SDS011;1536;51.098;6.414;2023-02-27T13:40:31;5.32;;;3.88;;
3052;SDS011;1536;51.098;6.414;2023-02-27T13:43:01;5.60;;;3.78;;
3052;SDS011;1536;51.098;6.414;2023-02-27T13:48:37;5.22;;;3.88;;
3052;SDS011;1536;51.098;6.414;2023-02-27T13:54:19;6.05;;;4.47;;
3052;SDS011;1536;51.098;6.414;2023-02-27T13:57:04;4.57;;;4.03;;
3052;SDS011;1536;51.098;6.414;2023-02-27T13:59:53;4.30;;;3.88;;
3052;SDS011;1536;51.098;6.414;2023-02-27T14:02:38;4.30;;;3.90;;
3052;SDS011;1536;51.098;6.414;2023-02-27T14:05:09;4.95;;;4.47;;
3052;SDS011;1536;51.098;6.414;2023-02-27T14:07:55;7.60;;;4.40;;
3052;SDS011;1536;51.098;6.414;2023-02-27T14:10:25;5.07;;;4.57;;
3052;SDS011;1536;51.098;6.414;2023-02-27T14:12:53;4.70;;;4.22;;
3052;SDS011;1536;51.098;6.414;2023-02-27T14:24:24;5.88;;;4.80;;
3052;SDS011;1536;51.098;6.414;2023-02-27T14:26:56;4.78;;;4.32;;
3052;SDS011;1536;51.098;6.414;2023-02-27T14:29:24;7.15;;;4.82;;
3052;SDS011;1536;51.098;6.414;2023-02-27T14:31:55;5.85;;;5.32;;
3052;SDS011;1536;51.098;6.414;2023-02-27T14:34:23;5.25;;;4.75;;
3052;SDS011;1536;51.098;6.414;2023-02-27T14:36:52;5.20;;;4.70;;
3052;SDS011;1536;51.098;6.414;2023-02-27T14:39:25;5.03;;;4.45;;
3052;SDS011;1536;51.098;6.414;2023-02-27T14:41:58;5.10;;;4.60;;
3052;SDS011;1536;51.098;6.414;2023-02-27T14:44:36;7.50;;;4.03;;
3052;SDS011;1536;51.098;6.414;2023-02-27T14:47:05;8.88;;;4.10;;
3052;SDS011;1536;51.098;6.414;2023-02-27T14:49:39;5.47;;;4.25;;
3052;SDS011;1536;51.098;6.414;2023-02-27T14:52:10;4.70;;;4.28;;
3052;SDS011;1536;51.098;6.414;2023-02-27T14:54:40;6.72;;;4.75;;
3052;SDS011;1536;51.098;6.414;2023-02-27T14:57:13;5.50;;;5.07;;
3052;SDS011;1536;51.098;6.414;2023-02-27T14:59:42;5.15;;;4.50;;
3052;SDS011;1536;51.098;6.414;2023-02-27T15:02:15;5.47;;;4.50;;
3052;SDS011;1536;51.098;6.414;2023-02-27T15:04:46;5.80;;;5.30;;
3052;SDS011;1536;51.098;6.414;2023-02-27T15:07:16;4.82;;;4.10;;
3052;SDS011;1536;51.098;6.414;2023-02-27T15:09:49;4.35;;;3.95;;
3052;SDS011;1536;51.098;6.414;2023-02-27T15:12:20;5.90;;;4.35;;
3052;SDS011;1536;51.098;6.414;2023-02-27T15:14:49;4.93;;;4.47;;
3052;SDS011;1536;51.098;6.414;2023-02-27T15:17:18;5.05;;;4.20;;
3052;SDS011;1536;51.098;6.414;2023-02-27T15:19:48;4.53;;;4.13;;
3052;SDS011;1536;51.098;6.414;2023-02-27T15:22:17;4.80;;;4.30;;
3052;SDS011;1536;51.098;6.414;2023-02-27T15:24:45;5.13;;;4.63;;
3052;SDS011;1536;51.098;6.414;2023-02-27T15:27:15;5.15;;;4.47;;
3052;SDS011;1536;51.098;6.414;2023-02-27T15:29:43;5.18;;;4.65;;
3052;SDS011;1536;51.098;6.414;2023-02-27T15:32:14;4.88;;;4.47;;
3052;SDS011;1536;51.098;6.414;2023-02-27T15:34:45;6.38;;;4.63;;
3052;SDS011;1536;51.098;6.414;2023-02-27T15:37:15;5.43;;;4.43;;
3052;SDS011;1536;51.098;6.414;2023-02-27T15:39:46;9.30;;;4.43;;
3052;SDS011;1536;51.098;6.414;2023-02-27T15:42:15;5.40;;;4.90;;
3052;SDS011;1536;51.098;6.414;2023-02-27T15:44:45;4.38;;;3.97;;
3052;SDS011;1536;51.098;6.414;2023-02-27T15:47:14;5.97;;;4.93;;
3052;SDS011;1536;51.098;6.414;2023-02-27T15:49:46;4.90;;;4.50;;
3052;SDS011;1536;51.098;6.414;2023-02-27T15:52:15;5.20;;;4.70;;
3052;SDS011;1536;51.098;6.414;2023-02-27T15:54:45;6.03;;;3.80;;
3052;SDS011;1536;51.098;6.414;2023-02-27T15:57:16;4.57;;;4.18;;
3052;SDS011;1536;51.098;6.414;2023-02-27T15:59:45;4.30;;;4.00;;
3052;SDS011;1536;51.098;6.414;2023-02-27T16:02:17;5.13;;;4.78;;
3052;SDS011;1536;51.098;6.414;2023-02-27T16:04:47;4.30;;;4.00;;
3052;SDS011;1536;51.098;6.414;2023-02-27T16:07:14;5.15;;;4.35;;